Terminal Aerodrome Forecast
Issued by NWS Pocatello, ID

Home | Current Version | Previous Version | Text Only | Print | Product List | Glossary On
Versions: 1 2 3 4 5 6 7 8 9 10 11 12 13 14
000
FTUS45 KPIH 252320
TAFBYI
TAF
KBYI 252320Z 2600/2624 08008KT P6SM SCT200
     FM260100 VRB06KT P6SM SKC
     FM261900 27011KT P6SM SCT200=

USA.gov is the U.S. government's official web portal to all federal, state and local government web resources and services.